Assonet, Massachusetts
Current Conditions -  °F | °C
As of 8:52 AM on Saturday 01 Nov 2014 (Local Time) from KTAN Reporting Station
Overcast Overcast  
Wind Chill: 42°   Ceiling: 1400
Heat Index: 46°   Visibility: 10mi
Dew Point: 38°   Wind: 8mph
Humidity: 73%   Direction: 10°N
Pressure: 29.82"   Gusts: 22mph
Location:  41.8°N, 71.07°W
Report Text: KTAN 011252Z AUTO 01007G19KT 340V050 10SM OVC014 08/03 A2982 RMK AO2 PRESFR SLP099 T00780033
Loading
Personal Weather Stations






























Interactive Weather Map
Tropical Storm Tracking
New forecast layout! Learn more

10-Day Weather Forecast

Advertisements
Track Severe Weather on mobile